HARTSFIELD - JACKSON ATLANTA INTL

KATL (ATL)
Atlanta, Georgia
Towered

Vatsim Metar:
KATL 271552Z 10009KT 10SM CLR 06/M07 A3036 RMK AO2 SLP287 T00611067

HARTSFIELD - JACKSON ATLANTA INTL ATC

ATL_TWR - 119.100 - Timothy Makarov
Manchester Ground Voice ATIS on 121.970 Submit feedback at vats.im/atcfb

Traffic

Inbound:
Ident
Type
Name
ETA
Phase
NJ8KW
BE36
Jimmy Hammels KSEA
16:34 Z
Descent
N365ST
PC6T
Andrew Connelly EGPK
16:35 Z
Cruse
N931WG
BE30
Park Hilliard KBNA
Boarding
AAY1312
A320
Kyle Eherts KPIE
17:57 Z
Climb
DAL2966
A321
Martin Dahl ESSL
17:16 Z
Cruse
DAL2463
A320
Shanard Letang KTPA
Boarding
DAL1729
B738
Josh Rosen KILM
Boarding

Outbound:
Ident
Type
Name
Destination
Phase
DAL1238
A320
Rich Pfeiffer KORF
KDFW
Boarding
DAL231
A321
Eric Cullum KATL
CYYZ
Boarding
DAL2564
A20N
Donaven Hutton KPHL
KMCO
Boarding
DAL656
B763
1293884 KPDK
KSEA
Boarding
DAL517
B752
Marcos Tiburcio KJFK
KJFK
Taxiing Out